METAR Data
IDs: Format: Raw Decoded Include TAF

Data at: 0019 UTC 30 May 2020

KBEH 292353Z AUTO 34006KT 10SM CLR 17/11 A3002 RMK AO2 SLP166 T01720111 10211 20172 53016
KBEH 292253Z AUTO VRB04KT 10SM CLR 18/11 A3000 RMK AO2 SLP157 T01830111
KBEH 292153Z AUTO VRB06KT 10SM CLR 19/12 A2999 RMK AO2 SLP154 T01890122
KBEH 292053Z AUTO VRB04KT 10SM CLR 19/13 A2998 RMK AO2 SLP149 T01940128 51013
KBEH 292004Z AUTO 32008KT 280V340 10SM BKN031 20/09 A2996 RMK AO2 T02000094
KBEH 291953Z AUTO 30007KT 270V340 10SM BKN029 20/11 A2996 RMK AO2 SLP143 T02000106
KBEH 291948Z AUTO 32006KT 10SM BKN029 20/11 A2996 RMK AO2
KBEH 291853Z AUTO 28007KT 10SM CLR 21/11 A2994 RMK AO2 SLP136 T02060111
KBEH 291753Z AUTO 29007KT 10SM CLR 19/12 A2995 RMK AO2 SLP138 60002 T01940122 10194 20144 56001
KBEH 291653Z AUTO 27008KT 10SM CLR 18/12 A2995 RMK AO2 SLP138 T01830117
KBEH 291553Z AUTO 29008KT 10SM CLR 18/13 A2995 RMK AO2 SLP139 T01830128
KBEH 291453Z AUTO 29007KT 10SM CLR 17/13 A2995 RMK AO2 SLP139 60002 T01720128 53012
KBEH 291353Z AUTO 30003KT 10SM SCT120 16/13 A2993 RMK AO2 RAE12 SLP132 P0001 T01610133
KBEH 291253Z AUTO 00000KT 10SM -RA FEW012 BKN055 OVC090 15/13 A2993 RMK AO2 SLP132 P0001 T01500133
KBEH 291153Z AUTO 06004KT 10SM -RA FEW030 BKN045 OVC085 14/13 A2991 RMK AO2 SLP126 P0002 60008 70020 T01440128 10172 20139 51015
KBEH 291053Z AUTO 01008KT 330V050 9SM -RA OVC040 14/12 A2991 RMK AO2 SLP124 P0002 T01390122
KBEH 291031Z AUTO VRB05KT 10SM -RA FEW012 OVC034 14/12 A2990 RMK AO2 P0001 T01440122
KBEH 290953Z AUTO VRB05KT 10SM -RA FEW005 SCT018 OVC025 14/13 A2988 RMK AO2 SLP115 P0003 T01440128
KBEH 290948Z AUTO VRB05KT 10SM -RA SCT005 BKN018 OVC023 14/13 A2988 RMK AO2 P0003
KBEH 290941Z AUTO 10SM -RA BKN005 BKN017 OVC023 15/13 A2988 RMK AO2 CIG 003V009 P0002 T01500133
KBEH 290925Z AUTO 32009G18KT 290V350 5SM RA BR OVC004 15/14 A2988 RMK AO2 P0002 T01500139
KBEH 290853Z AUTO 31006KT 2SM -RA BR OVC003 15/14 A2987 RMK AO2 RAB19 SLP111 P0001 60001 T01500139 53009
KBEH 290846Z AUTO 31007KT 290V350 2 1/2SM -RA BR OVC004 15/14 A2987 RMK AO2 RAB19 P0001 T01500139
KBEH 290753Z AUTO VRB03KT 10SM OVC003 17/15 A2985 RMK AO2 SLP105 T01670150
KBEH 290653Z AUTO 34003KT 10SM BKN006 OVC027 17/16 A2984 RMK AO2 CIG 004V008 SLP103 T01670156
KBEH 290639Z AUTO 10SM BKN006 OVC023 17/16 A2984 RMK AO2 CIG 003V008 T01720156
KBEH 290553Z AUTO 00000KT 10SM FEW002 BKN018 17/16 A2984 RMK AO2 SLP102 P0001 60009 T01670156 10256 20167 55008
KBEH 290543Z AUTO 32003KT 10SM SCT002 BKN017 17/16 A2984 RMK AO2 P0001 T01670156
KBEH 290453Z AUTO 00000KT 10SM OVC002 17/16 A2984 RMK AO2 RAE02 SLP102 P0003 T01670161 402670167
KBEH 290353Z AUTO 00000KT 10SM -RA OVC004 17/16 A2986 RMK AO2 SLP109 P0004 T01720161
KBEH 290330Z AUTO 31004KT 9SM -RA BKN006 OVC045 17/16 A2988 RMK AO2 P0003 T01720161
KBEH 290310Z AUTO 28008KT 4SM +RA BR FEW009 OVC044 18/17 A2987 RMK AO2 LTG DSNT W P0001 T01830167
KBEH 290253Z AUTO 27006KT 7SM -RA OVC042 19/17 A2986 RMK AO2 LTG DSNT W RAB32 SLP110 P0001 60001 T01890167 53021
KBEH 290153Z AUTO 29004KT 10SM FEW070 SCT120 19/16 A2984 RMK AO2 SLP101 T01890161
KBEH 290053Z AUTO 10SM BKN050 OVC070 23/17 A2982 RMK AO2 SLP095 T02330167
KBEH 282353Z AUTO 22006KT 10SM BKN110 26/17 A2980 RMK AO2 SLP087 60000 T02560172 10267 20217 55006
KBEH 282253Z AUTO 24007KT 10SM FEW100 26/17 A2979 RMK AO2 SLP082 T02560172
KBEH 282153Z AUTO 24009KT 10SM BKN100 26/19 A2980 RMK AO2 SLP087 T02610189
KBEH 282053Z AUTO 24010KT 10SM SCT090 26/19 A2982 RMK AO2 SLP094 60000 T02560189 56014
KBEH 281953Z AUTO 22006KT 10SM BKN120 24/18 A2983 RMK AO2 RAE00 SLP096 P0000 T02390183
KBEH 281901Z AUTO 24006KT 10SM SCT013 BKN049 OVC060 22/19 A2984 RMK AO2 RAE00 P0000 T02220194
KBEH 281853Z AUTO 23007G17KT 6SM -RA BR SCT013 BKN017 OVC050 22/19 A2985 RMK AO2 RAB11E24B49 SLP104 P0000 T02170194
KBEH 281836Z AUTO 22009KT 10SM BKN011 BKN019 OVC040 22/19 A2986 RMK AO2 RAB11E24 P0000 T02220194
KBEH 281753Z AUTO 20008KT 10SM SCT011 BKN034 OVC050 22/19 A2986 RMK AO2 RAE10 SLP109 P0001 60003 T02170194 10228 20206 58008
KBEH 281703Z AUTO 22008KT 10SM -RA SCT010 SCT042 OVC110 22/20 A2987 RMK AO2 P0001 T02220200
KBEH 281653Z AUTO 21007KT 10SM -RA BKN010 BKN095 BKN110 22/19 A2987 RMK AO2 CIG 007V021 SLP112 P0002 T02170194
KBEH 281253Z AUTO 19005KT 10SM FEW070 SCT110 22/19 A2989 RMK AO2 SLP119 T02220189